Airfield :
LOGIN :

Register | Disclaimer

   EN    FR    IT 

 










Legend :    VFR   Marginal VFR   IFR   Intensive IFR   Very Intensive IFR
Visi :
Ceiling :
>= 8 km
>= 3000ft
5 to 8 km
1000 to 3000 ft
1500m to 5 km
500 to 1000 ft
800 to 1500m
200 to 500 ft
< 800m
< 200 ft
Symbols :   Thunderstorms  Fog  Heavy snow  Heavy precipitations  Wind > 20 kt
SIGMETs :     Misc.  Thunderstorms  Icing  Turbulence  Mountain Waves  Volcanic Ashes







- Airport Elevation : 796 ft
- IATA code : SYT
- Download approach charts


LFLN - Saint-Yan

CURRENT METAR :
  • 191330Z AUTO 29004KT 250V320 3600 -DZ BR OVC007 06/05 Q1023 TEMPO 2000 -DZ BR BKN004 OVC007

EXPIRED METARs :
  • 191300Z AUTO 29005KT 4100 -RA BR OVC006 06/05 Q1023 TEMPO 2000 -DZ BR BKN004 OVC007
  • 191230Z AUTO 29005KT 240V310 6000 -DZ OVC007 06/05 Q1023 TEMPO 2000 -DZ BR BKN004 OVC007
  • 191200Z AUTO 27003KT 9999 OVC007 06/05 Q1023 TEMPO 2000 -DZ BR BKN004 OVC007
  • 191130Z AUTO VRB03KT 8000 OVC007 06/05 Q1023 TEMPO 2000 -DZ BR BKN004 OVC007
  • 191100Z AUTO 29003KT 6000 -RA OVC008 06/05 Q1023 TEMPO 2000 -DZ BR

TAF TAF LFLN
Valid from the 19 at 12:00 until the 19 at 21:00 UTC


191100Z 1912/1921 30004KT 7000 OVC012
TEMPO 1912/1921 2000 -DZ BR BKN004 OVC007
No reported NOTAMs for that airfield.



MET'MAP, your aeronautical weather chart ! - Copyright ORBIFLY December 2007 - Disclaimer

ORBIFLY MET'MAP TEAM :

Programming & Development : Alexandra Zaïnal
Concept & Development : Baudouin d'Aumeries
Co-Development & Prog : Marc-Olivier Méhu
Technical & hardware support : Manuel Goepfert

Contact : metmap@orbifly.com




SOURCES & CREDITS :

   NOAA